createdAt,value
2018-02-27T00:02:18.054Z,-4.53
2018-02-27T00:04:51.650Z,-4.64
2018-02-27T00:07:24.161Z,-4.64
2018-02-27T00:09:56.688Z,-4.64
2018-02-27T00:12:29.174Z,-4.69
2018-02-27T00:15:01.684Z,-4.68
2018-02-27T00:17:34.189Z,-4.66
2018-02-27T00:20:06.706Z,-4.72
2018-02-27T00:22:39.215Z,-4.71
2018-02-27T00:25:11.740Z,-4.73
2018-02-27T00:27:44.245Z,-4.73
2018-02-27T00:30:16.766Z,-4.78
2018-02-27T00:32:49.264Z,-4.80
2018-02-27T00:35:22.748Z,-4.79
2018-02-27T00:37:55.281Z,-4.77
2018-02-27T00:40:27.803Z,-4.71
2018-02-27T00:43:00.299Z,-4.74
2018-02-27T00:45:32.812Z,-4.81
2018-02-27T00:48:05.297Z,-4.90
2018-02-27T00:50:37.812Z,-4.93
2018-02-27T00:53:10.312Z,-4.97
2018-02-27T00:55:42.854Z,-5.02
2018-02-27T00:58:15.356Z,-4.98
2018-02-27T01:00:47.876Z,-4.95
2018-02-27T01:03:20.382Z,-4.98
2018-02-27T01:05:52.902Z,-5.06
2018-02-27T01:08:25.414Z,-5.09
2018-02-27T01:10:58.042Z,-5.12
2018-02-27T01:13:30.537Z,-5.17
2018-02-27T01:16:03.076Z,-5.23
2018-02-27T01:18:35.611Z,-5.30
2018-02-27T01:21:08.181Z,-5.34
2018-02-27T01:23:40.643Z,-5.38
2018-02-27T01:26:13.153Z,-5.45
2018-02-27T01:31:24.506Z,-5.47
2018-02-27T01:33:56.995Z,-5.50
2018-02-27T01:36:29.517Z,-5.54
2018-02-27T01:39:02.020Z,-5.53
2018-02-27T01:41:34.539Z,-5.54
2018-02-27T01:44:07.053Z,-5.64
2018-02-27T01:46:39.580Z,-5.57
2018-02-27T01:49:12.074Z,-5.51
2018-02-27T01:51:44.627Z,-5.52
2018-02-27T01:54:17.118Z,-5.51
2018-02-27T01:56:49.639Z,-5.45
2018-02-27T01:59:22.137Z,-5.44
2018-02-27T02:01:54.780Z,-5.42
2018-02-27T02:04:27.285Z,-5.40
2018-02-27T02:06:59.803Z,-5.47
2018-02-27T02:09:32.292Z,-5.51
2018-02-27T02:12:04.800Z,-5.55
2018-02-27T02:14:37.313Z,-5.50
2018-02-27T02:17:09.822Z,-5.47
2018-02-27T02:19:42.370Z,-5.46
2018-02-27T02:22:14.884Z,-5.36
2018-02-27T02:24:47.379Z,-5.36
2018-02-27T02:27:19.892Z,-5.30
2018-02-27T02:29:52.399Z,-5.17
2018-02-27T02:32:24.913Z,-5.13
2018-02-27T02:34:57.404Z,-5.27
2018-02-27T02:37:29.937Z,-5.29
2018-02-27T02:40:02.501Z,-5.20
2018-02-27T02:42:35.026Z,-5.08
2018-02-27T02:45:07.530Z,-5.07
2018-02-27T02:47:40.057Z,-5.02
2018-02-27T02:50:12.569Z,-4.96
2018-02-27T02:52:45.101Z,-5.22
2018-02-27T02:55:17.601Z,-5.27
2018-02-27T02:57:50.119Z,-5.31
2018-02-27T03:00:22.637Z,-5.35
2018-02-27T03:02:55.178Z,-5.29
2018-02-27T03:05:27.696Z,-5.02
2018-02-27T03:08:00.208Z,-4.82
2018-02-27T03:10:32.714Z,-4.72
2018-02-27T03:13:05.232Z,-4.73
2018-02-27T03:15:37.737Z,-4.60
2018-02-27T03:18:10.257Z,-4.45
2018-02-27T03:20:42.756Z,-4.36
2018-02-27T03:23:15.283Z,-4.34
2018-02-27T03:25:47.779Z,-4.32
2018-02-27T03:28:20.292Z,-4.23
2018-02-27T03:30:52.781Z,-4.28
2018-02-27T03:33:25.300Z,-4.34
2018-02-27T03:35:57.816Z,-4.50
2018-02-27T03:38:30.339Z,-4.77
2018-02-27T03:41:02.852Z,-4.53
2018-02-27T03:43:35.368Z,-4.56
2018-02-27T03:46:07.898Z,-4.53
2018-02-27T03:48:40.422Z,-4.46
2018-02-27T03:51:12.920Z,-4.26
2018-02-27T03:53:45.440Z,-4.00
2018-02-27T03:56:17.997Z,-3.81
2018-02-27T03:58:50.495Z,-3.64
2018-02-27T04:01:23.044Z,-3.64
2018-02-27T04:03:55.543Z,-3.63
2018-02-27T04:06:28.054Z,-3.51
2018-02-27T04:09:00.558Z,-3.40
2018-02-27T04:11:33.080Z,-3.33
2018-02-27T04:14:05.587Z,-3.26
2018-02-27T04:16:38.153Z,-3.21
2018-02-27T04:19:10.660Z,-3.19
2018-02-27T04:21:43.237Z,-3.18
2018-02-27T04:24:15.745Z,-3.29
2018-02-27T04:26:48.275Z,-3.31
2018-02-27T04:29:20.781Z,-3.15
2018-02-27T04:31:53.302Z,-3.07
2018-02-27T04:34:25.791Z,-3.03
2018-02-27T04:36:58.309Z,-2.97
2018-02-27T04:39:30.810Z,-2.98
2018-02-27T04:42:03.333Z,-2.96
2018-02-27T04:44:35.853Z,-2.90
2018-02-27T04:47:08.379Z,-2.83
2018-02-27T04:49:40.875Z,-2.79
2018-02-27T04:52:13.422Z,-2.74
2018-02-27T04:54:45.920Z,-2.85
2018-02-27T04:57:18.485Z,-2.91
2018-02-27T04:59:51.017Z,-2.90
2018-02-27T05:02:23.550Z,-2.91
2018-02-27T05:04:56.048Z,-3.07
2018-02-27T05:07:28.571Z,-3.16
2018-02-27T05:10:01.073Z,-3.01
2018-02-27T05:12:33.622Z,-3.30
2018-02-27T05:15:06.156Z,-3.26
2018-02-27T05:17:38.677Z,-3.23
2018-02-27T05:20:11.482Z,-3.21
2018-02-27T05:22:44.006Z,-3.33
2018-02-27T05:25:16.516Z,-3.49
2018-02-27T05:27:49.063Z,-3.64
2018-02-27T05:30:21.561Z,-3.57
2018-02-27T05:32:54.098Z,-3.66
2018-02-27T05:35:26.606Z,-3.59
2018-02-27T05:37:59.127Z,-3.54
2018-02-27T05:40:31.633Z,-3.48
2018-02-27T05:43:04.159Z,-3.50
2018-02-27T05:45:36.651Z,-3.42
2018-02-27T05:48:09.176Z,-3.42
2018-02-27T05:50:41.677Z,-3.52
2018-02-27T05:53:14.228Z,-3.57
2018-02-27T05:55:46.746Z,-3.30
2018-02-27T05:58:19.292Z,-3.16
2018-02-27T06:00:51.807Z,-3.09
2018-02-27T06:03:24.354Z,-3.12
2018-02-27T06:05:56.877Z,-3.16
2018-02-27T06:08:29.417Z,-3.25
2018-02-27T06:11:01.938Z,-3.27
2018-02-27T06:13:34.455Z,-3.28
2018-02-27T06:16:06.963Z,-3.37
2018-02-27T06:18:39.500Z,-3.44
2018-02-27T06:21:11.994Z,-3.45
2018-02-27T06:23:44.544Z,-3.51
2018-02-27T06:26:17.052Z,-3.55
2018-02-27T06:28:52.660Z,-3.89
2018-02-27T06:31:25.166Z,-3.88
2018-02-27T06:33:57.702Z,-3.94
2018-02-27T06:36:30.202Z,-4.05
2018-02-27T06:39:02.736Z,-4.44
2018-02-27T06:41:35.251Z,-4.65
2018-02-27T06:44:07.777Z,-4.55
2018-02-27T06:46:40.290Z,-4.52
2018-02-27T06:49:12.817Z,-4.28
2018-02-27T06:51:45.319Z,-4.07
2018-02-27T06:54:17.857Z,-3.98
2018-02-27T06:56:50.375Z,-3.91
2018-02-27T06:59:22.921Z,-3.86
2018-02-27T07:01:55.443Z,-3.93
2018-02-27T07:04:27.966Z,-4.00
2018-02-27T07:07:00.469Z,-4.15
2018-02-27T07:09:33.006Z,-4.30
2018-02-27T07:12:05.525Z,-4.28
2018-02-27T07:14:38.056Z,-4.25
2018-02-27T07:17:10.564Z,-4.08
2018-02-27T07:19:43.089Z,-3.87
2018-02-27T07:22:15.602Z,-3.90
2018-02-27T07:24:48.156Z,-3.82
2018-02-27T07:27:20.662Z,-3.67
2018-02-27T07:29:53.299Z,-3.40
2018-02-27T07:32:25.819Z,-3.16
2018-02-27T07:34:58.369Z,-3.00
2018-02-27T07:37:30.871Z,-2.83
2018-02-27T07:40:03.404Z,-2.73
2018-02-27T07:42:35.935Z,-2.56
2018-02-27T07:45:08.489Z,-2.35
2018-02-27T07:47:41.004Z,-2.22
2018-02-27T07:50:13.542Z,-2.15
2018-02-27T07:52:46.078Z,-1.86
2018-02-27T07:55:18.595Z,-1.91
2018-02-27T07:57:51.187Z,-1.52
2018-02-27T08:00:23.704Z,-1.22
2018-02-27T08:02:56.251Z,-0.95
2018-02-27T08:05:28.763Z,-0.63
2018-02-27T08:08:01.286Z,-0.42
2018-02-27T08:10:33.826Z,-0.21
2018-02-27T08:13:06.379Z,-0.08
2018-02-27T08:15:38.906Z,-0.01
2018-02-27T08:18:11.437Z,0.03
2018-02-27T08:20:43.954Z,0.06
2018-02-27T08:23:16.493Z,0.26
2018-02-27T08:25:49.016Z,0.32
2018-02-27T08:28:21.560Z,0.29
2018-02-27T08:30:54.083Z,0.20
2018-02-27T08:33:28.616Z,0.22
2018-02-27T08:36:01.117Z,0.22
2018-02-27T08:38:33.663Z,0.37
2018-02-27T08:41:06.176Z,0.52
2018-02-27T08:43:38.715Z,0.51
2018-02-27T08:46:11.214Z,0.66
2018-02-27T08:48:43.748Z,1.18
2018-02-27T08:51:16.254Z,1.31
2018-02-27T08:53:48.778Z,1.13
2018-02-27T08:56:21.276Z,0.82
2018-02-27T08:58:53.788Z,0.82
2018-02-27T09:01:26.300Z,1.23
2018-02-27T09:03:58.819Z,1.29
2018-02-27T09:06:31.320Z,1.31
2018-02-27T09:09:03.845Z,1.04
2018-02-27T09:11:36.353Z,0.94
2018-02-27T09:14:08.888Z,1.08
2018-02-27T09:16:41.404Z,1.48
2018-02-27T09:19:13.957Z,2.05
2018-02-27T09:21:46.435Z,2.20
2018-02-27T09:26:57.806Z,2.30
2018-02-27T09:29:30.324Z,2.57
2018-02-27T09:32:02.819Z,2.33
2018-02-27T09:34:35.357Z,2.04
2018-02-27T09:37:07.847Z,1.79
2018-02-27T09:39:40.359Z,1.48
2018-02-27T09:42:12.849Z,1.78
2018-02-27T09:44:45.379Z,1.87
2018-02-27T09:47:17.885Z,1.89
2018-02-27T09:49:50.404Z,1.98
2018-02-27T09:52:22.888Z,2.18
2018-02-27T09:54:55.396Z,2.59
2018-02-27T09:57:27.890Z,2.75
2018-02-27T10:00:00.432Z,2.84
2018-02-27T10:02:32.941Z,2.77
2018-02-27T10:05:05.449Z,2.61
2018-02-27T10:07:37.960Z,2.46
2018-02-27T10:10:10.486Z,2.22
2018-02-27T10:12:42.979Z,1.96
2018-02-27T10:15:15.490Z,1.79
2018-02-27T10:17:48.067Z,1.80
2018-02-27T10:20:20.625Z,1.52
2018-02-27T10:22:53.182Z,1.58
2018-02-27T10:25:25.720Z,1.58
2018-02-27T10:27:59.139Z,1.47
2018-02-27T10:30:33.621Z,1.32
2018-02-27T10:33:06.109Z,1.39
2018-02-27T10:35:38.619Z,1.27
2018-02-27T10:38:11.168Z,1.33
2018-02-27T10:40:43.698Z,1.53
2018-02-27T10:43:16.216Z,1.75
2018-02-27T10:45:48.733Z,1.87
2018-02-27T10:48:21.248Z,2.45
2018-02-27T10:50:53.811Z,2.95
2018-02-27T10:53:26.313Z,3.64
2018-02-27T10:55:58.834Z,4.11
2018-02-27T10:58:31.328Z,3.51
2018-02-27T11:01:04.899Z,3.24
2018-02-27T11:03:37.398Z,2.91
2018-02-27T11:06:09.952Z,2.58
2018-02-27T11:08:42.452Z,2.36
2018-02-27T11:11:14.973Z,2.09
2018-02-27T11:13:47.470Z,1.99
2018-02-27T11:16:19.989Z,2.05
2018-02-27T11:18:52.577Z,2.42
2018-02-27T11:21:25.095Z,2.25
2018-02-27T11:23:57.650Z,2.29
2018-02-27T11:26:30.153Z,2.26
2018-02-27T11:29:02.705Z,2.20
2018-02-27T11:31:35.200Z,2.29
2018-02-27T11:34:07.725Z,2.38
2018-02-27T11:36:40.236Z,2.51
2018-02-27T11:39:12.820Z,2.43
2018-02-27T11:41:45.306Z,2.42
2018-02-27T11:44:17.898Z,2.23
2018-02-27T11:46:50.390Z,2.16
2018-02-27T11:49:22.914Z,2.10
2018-02-27T11:51:55.425Z,2.36
2018-02-27T11:54:27.966Z,2.10
2018-02-27T11:57:01.540Z,2.43
2018-02-27T11:59:34.079Z,2.71
2018-02-27T12:02:06.568Z,2.91
2018-02-27T12:04:39.081Z,3.06
2018-02-27T12:07:11.592Z,2.97
2018-02-27T12:09:44.122Z,2.91
2018-02-27T12:12:16.636Z,2.61
2018-02-27T12:14:49.143Z,2.25
2018-02-27T12:17:21.644Z,1.89
2018-02-27T12:19:54.169Z,1.70
2018-02-27T12:22:26.664Z,1.74
2018-02-27T12:24:59.174Z,1.71
2018-02-27T12:27:31.694Z,1.71
2018-02-27T12:30:04.251Z,1.78
2018-02-27T12:32:36.757Z,1.89
2018-02-27T12:35:09.310Z,2.01
2018-02-27T12:37:41.834Z,2.31
2018-02-27T12:40:14.355Z,2.43
2018-02-27T12:42:46.875Z,2.61
2018-02-27T12:45:19.404Z,2.78
2018-02-27T12:47:51.903Z,2.73
2018-02-27T12:50:24.406Z,2.65
2018-02-27T12:52:57.365Z,2.61
2018-02-27T12:55:29.870Z,2.57
2018-02-27T12:58:02.357Z,2.50
2018-02-27T13:00:34.880Z,2.35
2018-02-27T13:03:07.843Z,1.98
2018-02-27T13:05:40.359Z,1.95
2018-02-27T13:08:12.864Z,1.95
2018-02-27T13:10:45.372Z,1.95
2018-02-27T13:13:17.879Z,1.98
2018-02-27T13:15:50.379Z,1.79
2018-02-27T13:18:23.519Z,1.62
2018-02-27T13:20:56.045Z,1.64
2018-02-27T13:23:28.544Z,1.81
2018-02-27T13:26:01.052Z,2.29
2018-02-27T13:28:33.551Z,2.58
2018-02-27T13:31:06.072Z,2.76
2018-02-27T13:33:38.567Z,2.80
2018-02-27T13:36:11.092Z,3.14
2018-02-27T13:38:43.590Z,3.18
2018-02-27T13:41:16.122Z,3.17
2018-02-27T13:43:48.623Z,2.77
2018-02-27T13:46:21.145Z,2.43
2018-02-27T13:48:53.649Z,2.28
2018-02-27T13:51:26.181Z,2.24
2018-02-27T13:53:58.694Z,2.31
2018-02-27T13:56:31.217Z,2.43
2018-02-27T13:59:03.729Z,2.35
2018-02-27T14:01:36.277Z,2.47
2018-02-27T14:04:08.786Z,2.46
2018-02-27T14:06:41.298Z,2.24
2018-02-27T14:09:13.787Z,1.95
2018-02-27T14:11:46.300Z,1.59
2018-02-27T14:14:18.802Z,1.18
2018-02-27T14:16:51.319Z,1.06
2018-02-27T14:19:23.828Z,1.14
2018-02-27T14:21:56.341Z,0.99
2018-02-27T14:24:28.829Z,0.30
2018-02-27T14:27:01.354Z,-0.33
2018-02-27T14:29:33.853Z,-0.63
2018-02-27T14:32:06.383Z,-0.61
2018-02-27T14:34:38.879Z,-0.32
2018-02-27T14:37:11.393Z,-0.31
2018-02-27T14:39:43.911Z,0.10
2018-02-27T14:42:16.429Z,0.26
2018-02-27T14:44:48.942Z,0.05
2018-02-27T14:47:21.475Z,-0.30
2018-02-27T14:49:54.049Z,-0.72
2018-02-27T14:52:26.577Z,-0.37
2018-02-27T14:54:59.071Z,-0.45
2018-02-27T14:57:31.593Z,-0.54
2018-02-27T15:00:04.091Z,-0.81
2018-02-27T15:02:37.583Z,-0.73
2018-02-27T15:05:10.088Z,-0.32
2018-02-27T15:07:42.602Z,-0.20
2018-02-27T15:10:15.124Z,0.28
2018-02-27T15:12:47.617Z,0.64
2018-02-27T15:15:20.180Z,0.83
2018-02-27T15:17:52.669Z,0.79
2018-02-27T15:20:25.186Z,0.88
2018-02-27T15:22:57.684Z,1.00
2018-02-27T15:25:30.187Z,1.02
2018-02-27T15:28:02.753Z,0.94
2018-02-27T15:30:35.268Z,1.01
2018-02-27T15:33:07.770Z,1.17
2018-02-27T15:35:40.292Z,1.16
2018-02-27T15:38:12.791Z,1.10
2018-02-27T15:40:45.321Z,0.94
2018-02-27T15:43:17.843Z,0.95
2018-02-27T15:45:50.442Z,0.93
2018-02-27T15:48:22.932Z,0.80
2018-02-27T15:50:55.461Z,0.70
2018-02-27T15:53:27.963Z,0.58
2018-02-27T15:56:00.578Z,0.59
2018-02-27T15:58:33.070Z,0.43
2018-02-27T16:01:05.601Z,0.31
2018-02-27T16:03:38.101Z,0.29
2018-02-27T16:06:11.363Z,0.23
2018-02-27T16:08:44.952Z,-0.01
2018-02-27T16:11:17.967Z,-0.01
2018-02-27T16:13:51.391Z,-0.04
2018-02-27T16:16:24.965Z,-0.06
2018-02-27T16:18:57.468Z,-0.08
2018-02-27T16:21:29.991Z,-0.10
2018-02-27T16:24:02.488Z,-0.04
2018-02-27T16:26:35.015Z,-0.01
2018-02-27T16:29:07.507Z,0.00
2018-02-27T16:31:40.019Z,-0.05
2018-02-27T16:34:12.521Z,-0.13
2018-02-27T16:36:45.082Z,-0.28
2018-02-27T16:39:17.629Z,-0.37
2018-02-27T16:41:50.237Z,-0.42
2018-02-27T16:44:22.830Z,-0.51
2018-02-27T16:46:55.357Z,-0.55
2018-02-27T16:49:27.858Z,-0.62
2018-02-27T16:52:00.459Z,-0.69
2018-02-27T16:54:33.687Z,-0.82
2018-02-27T16:57:06.297Z,-0.99
2018-02-27T16:59:38.900Z,-1.01
2018-02-27T17:02:11.432Z,-1.06
2018-02-27T17:04:44.008Z,-1.12
2018-02-27T17:07:16.530Z,-1.24
2018-02-27T17:09:49.031Z,-1.31
2018-02-27T17:12:21.605Z,-1.45
2018-02-27T17:14:54.113Z,-1.48
2018-02-27T17:17:26.715Z,-1.58
2018-02-27T17:19:59.236Z,-1.78
2018-02-27T17:22:31.757Z,-1.85
2018-02-27T17:25:04.251Z,-1.92
2018-02-27T17:27:36.768Z,-2.01
2018-02-27T17:30:09.278Z,-2.09
2018-02-27T17:32:41.816Z,-2.12
2018-02-27T17:35:14.328Z,-2.24
2018-02-27T17:37:46.866Z,-2.14
2018-02-27T17:40:19.374Z,-2.14
2018-02-27T17:42:51.905Z,-2.15
2018-02-27T17:45:24.405Z,-2.25
2018-02-27T17:47:56.945Z,-2.15
2018-02-27T17:50:29.446Z,-2.17
2018-02-27T17:53:02.179Z,-2.16
2018-02-27T17:55:34.697Z,-2.32
2018-02-27T17:58:07.276Z,-2.33
2018-02-27T18:00:39.787Z,-2.19
2018-02-27T18:03:12.397Z,-2.21
2018-02-27T18:05:44.887Z,-2.25
2018-02-27T18:08:17.431Z,-2.24
2018-02-27T18:10:49.935Z,-2.15
2018-02-27T18:13:22.461Z,-2.23
2018-02-27T18:15:54.965Z,-2.16
2018-02-27T18:18:27.489Z,-2.16
2018-02-27T18:20:59.992Z,-2.07
2018-02-27T18:23:32.520Z,-2.04
2018-02-27T18:26:05.035Z,-2.14
2018-02-27T18:28:37.571Z,-2.14
2018-02-27T18:31:10.089Z,-2.19
2018-02-27T18:33:43.628Z,-2.25
2018-02-27T18:36:16.130Z,-2.13
2018-02-27T18:38:48.661Z,-2.22
2018-02-27T18:41:21.245Z,-2.06
2018-02-27T18:43:53.878Z,-2.17
2018-02-27T18:46:26.329Z,-2.00
2018-02-27T18:48:58.837Z,-1.96
2018-02-27T18:51:31.382Z,-1.97
2018-02-27T18:54:03.900Z,-1.84
2018-02-27T18:56:36.437Z,-1.90
2018-02-27T18:59:08.974Z,-2.01
2018-02-27T19:01:41.495Z,-1.75
2018-02-27T19:04:14.012Z,-1.83
2018-02-27T19:06:46.997Z,-1.88
2018-02-27T19:09:19.640Z,-1.95
2018-02-27T19:11:52.212Z,-2.01
2018-02-27T19:14:24.749Z,-1.89
2018-02-27T19:16:57.374Z,-2.09
2018-02-27T19:19:29.901Z,-1.99
2018-02-27T19:22:02.514Z,-2.02
2018-02-27T19:24:35.020Z,-2.14
2018-02-27T19:27:07.575Z,-1.85
2018-02-27T19:29:40.986Z,-1.92
2018-02-27T19:32:13.714Z,-2.18
2018-02-27T19:34:46.268Z,-1.97
2018-02-27T19:37:18.803Z,-2.02
2018-02-27T19:39:51.354Z,-2.00
2018-02-27T19:42:23.974Z,-2.04
2018-02-27T19:44:56.494Z,-1.99
2018-02-27T19:47:29.113Z,-2.14
2018-02-27T19:50:01.637Z,-2.27
2018-02-27T19:52:34.307Z,-2.22
2018-02-27T19:55:07.032Z,-2.48
2018-02-27T19:57:39.583Z,-2.69
2018-02-27T20:00:12.081Z,-2.55
2018-02-27T20:02:45.922Z,-2.73
2018-02-27T20:05:18.976Z,-2.28
2018-02-27T20:07:52.229Z,-2.47
2018-02-27T20:10:25.132Z,-2.44
2018-02-27T20:12:58.752Z,-2.57
2018-02-27T20:15:31.268Z,-2.46
2018-02-27T20:18:09.349Z,-2.63
2018-02-27T20:20:41.863Z,-2.50
2018-02-27T20:23:19.818Z,-3.06
2018-02-27T20:25:52.352Z,-2.83
2018-02-27T20:28:30.632Z,-2.64
2018-02-27T20:31:03.211Z,-3.09
2018-02-27T20:33:35.772Z,-3.12
2018-02-27T20:36:08.292Z,-3.27
2018-02-27T20:38:46.436Z,-2.90
2018-02-27T20:41:18.971Z,-3.49
2018-02-27T20:43:51.518Z,-3.11
2018-02-27T20:46:24.031Z,-3.13
2018-02-27T20:48:56.594Z,-3.07
2018-02-27T20:51:29.114Z,-3.45
2018-02-27T20:54:01.653Z,-3.10
2018-02-27T20:56:34.158Z,-2.98
2018-02-27T20:59:06.680Z,-3.56
2018-02-27T21:01:39.195Z,-3.45
2018-02-27T21:04:11.720Z,-3.78
2018-02-27T21:06:46.343Z,-3.90
2018-02-27T21:09:18.880Z,-4.35
2018-02-27T21:11:51.420Z,-3.71
2018-02-27T21:14:23.948Z,-3.84
2018-02-27T21:16:56.486Z,-3.85
2018-02-27T21:19:29.017Z,-3.77
2018-02-27T21:22:01.529Z,-3.39
2018-02-27T21:24:34.075Z,-3.45
2018-02-27T21:27:06.632Z,-3.66
2018-02-27T21:29:39.180Z,-3.49
2018-02-27T21:32:11.676Z,-3.64
2018-02-27T21:34:44.237Z,-3.54
2018-02-27T21:37:16.749Z,-3.28
2018-02-27T21:39:49.297Z,-3.19
2018-02-27T21:42:21.806Z,-3.24
2018-02-27T21:44:54.324Z,-4.00
2018-02-27T21:47:26.873Z,-4.23
2018-02-27T21:49:59.438Z,-3.78
2018-02-27T21:52:32.031Z,-4.26
2018-02-27T21:55:04.544Z,-3.49
2018-02-27T21:57:37.069Z,-3.64
2018-02-27T22:00:09.613Z,-3.65
2018-02-27T22:02:42.158Z,-3.93
2018-02-27T22:05:14.668Z,-3.77
2018-02-27T22:07:47.868Z,-4.03
2018-02-27T22:10:20.398Z,-4.20
2018-02-27T22:12:52.938Z,-3.63
2018-02-27T22:15:25.459Z,-3.72
2018-02-27T22:17:57.987Z,-3.57
2018-02-27T22:20:30.501Z,-4.06
2018-02-27T22:23:03.031Z,-4.12
2018-02-27T22:25:35.729Z,-4.06
2018-02-27T22:28:08.324Z,-4.53
2018-02-27T22:30:40.829Z,-4.35
2018-02-27T22:33:13.373Z,-4.15
2018-02-27T22:35:45.896Z,-4.37
2018-02-27T22:38:18.418Z,-4.62
2018-02-27T22:40:50.917Z,-4.67
2018-02-27T22:43:23.457Z,-4.70
2018-02-27T22:45:55.966Z,-4.47
2018-02-27T22:48:29.443Z,-4.73
2018-02-27T22:51:01.980Z,-4.90
2018-02-27T22:53:34.515Z,-4.77
2018-02-27T22:56:07.038Z,-4.92
2018-02-27T22:58:39.574Z,-6.03
2018-02-27T23:01:12.093Z,-5.05
2018-02-27T23:03:44.981Z,-5.15
2018-02-27T23:06:17.519Z,-5.04
2018-02-27T23:08:50.046Z,-5.49
2018-02-27T23:11:22.564Z,-4.95
2018-02-27T23:13:55.105Z,-5.00
2018-02-27T23:16:27.622Z,-4.64
2018-02-27T23:19:00.163Z,-4.73
2018-02-27T23:21:32.693Z,-5.78
2018-02-27T23:24:05.329Z,-5.39
2018-02-27T23:26:38.029Z,-5.31
2018-02-27T23:29:10.737Z,-5.33
2018-02-27T23:31:45.220Z,-5.64
2018-02-27T23:34:17.835Z,-5.18
2018-02-27T23:36:50.382Z,-5.22
2018-02-27T23:39:22.929Z,-5.65
2018-02-27T23:41:55.451Z,-5.45
2018-02-27T23:44:28.091Z,-5.41
2018-02-27T23:47:00.604Z,-5.24
2018-02-27T23:49:33.149Z,-5.73
2018-02-27T23:52:05.659Z,-5.27
2018-02-27T23:54:38.215Z,-5.31
2018-02-27T23:57:10.739Z,-5.42
2018-02-27T23:59:43.263Z,-5.16
